createdAt,value
2023-04-26T00:02:19.795Z,12.85
2023-04-26T00:05:09.764Z,13.45
2023-04-26T00:07:58.663Z,13.82
2023-04-26T00:10:46.366Z,14.40
2023-04-26T00:13:34.057Z,13.90
2023-04-26T00:16:21.862Z,14.18
2023-04-26T00:19:12.989Z,13.25
2023-04-26T00:22:01.166Z,12.95
2023-04-26T00:24:48.927Z,12.63
2023-04-26T00:27:36.680Z,12.88
2023-04-26T00:30:24.881Z,14.32
2023-04-26T00:33:12.425Z,13.52
2023-04-26T00:36:01.542Z,14.20
2023-04-26T00:38:49.116Z,14.07
2023-04-26T00:41:36.838Z,16.02
2023-04-26T00:44:25.200Z,12.07
2023-04-26T00:47:14.102Z,11.57
2023-04-26T00:50:03.854Z,13.90
2023-04-26T00:52:53.813Z,13.38
2023-04-26T00:55:42.157Z,12.27
2023-04-26T00:58:30.421Z,10.13
2023-04-26T01:01:18.239Z,9.48
2023-04-26T01:04:06.531Z,11.20
2023-04-26T01:06:56.764Z,10.63
2023-04-26T01:09:46.385Z,10.05
2023-04-26T01:12:34.568Z,10.25
2023-04-26T01:15:22.920Z,9.27
2023-04-26T01:18:10.286Z,10.00
2023-04-26T01:21:00.061Z,9.05
2023-04-26T01:23:51.584Z,8.90
2023-04-26T01:26:46.089Z,9.05
2023-04-26T01:29:35.408Z,8.98
2023-04-26T01:32:25.489Z,8.85
2023-04-26T01:35:13.291Z,10.02
2023-04-26T01:38:01.157Z,9.85
2023-04-26T01:40:50.217Z,9.85
2023-04-26T01:43:37.946Z,9.85
2023-04-26T01:46:26.176Z,10.77
2023-04-26T01:49:13.770Z,10.00
2023-04-26T01:52:03.044Z,9.40
2023-04-26T01:54:51.549Z,9.50
2023-04-26T01:57:42.390Z,11.50
2023-04-26T02:00:31.418Z,9.68
2023-04-26T02:03:19.004Z,9.68
2023-04-26T02:06:07.679Z,8.82
2023-04-26T02:08:56.140Z,8.80
2023-04-26T02:11:44.258Z,9.27
2023-04-26T02:14:34.127Z,9.88
2023-04-26T02:17:23.143Z,9.70
2023-04-26T02:20:11.872Z,10.07
2023-04-26T02:22:59.745Z,9.63
2023-04-26T02:25:48.915Z,10.32
2023-04-26T02:28:38.231Z,9.27
2023-04-26T02:31:28.380Z,9.35
2023-04-26T02:34:16.892Z,8.65
2023-04-26T02:37:04.889Z,8.10
2023-04-26T02:39:54.288Z,7.68
2023-04-26T02:42:42.674Z,8.73
2023-04-26T02:45:30.610Z,8.27
2023-04-26T02:48:19.647Z,7.22
2023-04-26T02:51:07.933Z,7.50
2023-04-26T02:53:56.179Z,8.27
2023-04-26T02:56:43.957Z,7.15
2023-04-26T02:59:31.708Z,8.75
2023-04-26T03:02:22.471Z,8.80
2023-04-26T03:05:12.042Z,8.57
2023-04-26T03:08:00.139Z,9.35
2023-04-26T03:10:48.325Z,8.77
2023-04-26T03:13:36.024Z,7.63
2023-04-26T03:16:25.614Z,9.18
2023-04-26T03:19:13.983Z,8.20
2023-04-26T03:22:04.159Z,9.75
2023-04-26T03:24:51.990Z,10.00
2023-04-26T03:27:40.407Z,9.45
2023-04-26T03:30:28.308Z,9.25
2023-04-26T03:33:16.981Z,10.60
2023-04-26T03:36:05.356Z,9.63
2023-04-26T03:38:54.667Z,9.88
2023-04-26T03:41:42.324Z,10.15
2023-04-26T03:44:33.642Z,9.05
2023-04-26T03:47:21.728Z,9.23
2023-04-26T03:50:12.213Z,10.52
2023-04-26T03:53:00.308Z,9.60
2023-04-26T03:55:49.841Z,10.80
2023-04-26T03:58:37.571Z,9.90
2023-04-26T04:01:26.274Z,9.55
2023-04-26T04:04:14.754Z,9.50
2023-04-26T04:07:03.435Z,9.95
2023-04-26T04:09:51.630Z,9.55
2023-04-26T04:12:42.700Z,9.50
2023-04-26T04:15:30.728Z,9.13
2023-04-26T04:18:19.209Z,9.15
2023-04-26T04:21:07.254Z,10.23
2023-04-26T04:23:55.384Z,9.70
2023-04-26T04:26:43.330Z,11.02
2023-04-26T04:29:32.990Z,9.10
2023-04-26T04:32:21.657Z,10.40
2023-04-26T04:35:10.011Z,9.90
2023-04-26T04:37:58.212Z,10.68
2023-04-26T04:40:47.788Z,10.35
2023-04-26T04:43:36.425Z,10.15
2023-04-26T04:46:26.576Z,10.57
2023-04-26T04:49:15.193Z,9.73
2023-04-26T04:52:03.455Z,10.75
2023-04-26T04:54:51.011Z,10.85
2023-04-26T04:57:42.936Z,10.05
2023-04-26T05:00:31.440Z,10.10
2023-04-26T05:03:40.497Z,10.88
2023-04-26T05:06:29.656Z,10.98
2023-04-26T05:09:17.780Z,10.07
2023-04-26T05:12:05.873Z,10.60
2023-04-26T05:14:54.150Z,11.23
2023-04-26T05:17:45.099Z,10.43
2023-04-26T05:20:41.904Z,11.90
2023-04-26T05:23:35.501Z,10.30
2023-04-26T05:26:23.261Z,10.93
2023-04-26T05:29:31.613Z,10.88
2023-04-26T05:32:30.045Z,12.20
2023-04-26T05:35:33.324Z,10.90
2023-04-26T05:38:24.101Z,9.85
2023-04-26T05:41:11.977Z,11.23
2023-04-26T05:43:59.737Z,11.00
2023-04-26T05:46:50.609Z,10.30
2023-04-26T05:49:40.949Z,10.75
2023-04-26T05:52:34.634Z,11.13
2023-04-26T05:55:27.352Z,10.15
2023-04-26T05:58:15.591Z,9.73
2023-04-26T06:01:04.021Z,10.55
2023-04-26T06:03:54.322Z,10.73
2023-04-26T06:06:50.355Z,10.05
2023-04-26T06:12:28.217Z,10.70
2023-04-26T06:15:23.745Z,9.98
2023-04-26T06:18:11.755Z,9.35
2023-04-26T06:21:03.864Z,9.82
2023-04-26T06:23:52.108Z,10.25
2023-04-26T06:26:41.861Z,10.35
2023-04-26T06:29:35.042Z,9.93
2023-04-26T06:35:14.658Z,9.70
2023-04-26T06:38:05.112Z,9.55
2023-04-26T06:40:58.096Z,9.95
2023-04-26T06:46:50.029Z,8.80
2023-04-26T06:49:40.466Z,8.27
2023-04-26T06:52:30.262Z,7.07
2023-04-26T06:55:18.077Z,7.93
2023-04-26T06:58:08.309Z,7.97
2023-04-26T07:01:01.621Z,7.80
2023-04-26T07:03:56.194Z,7.20
2023-04-26T07:06:44.697Z,6.55
2023-04-26T07:09:35.450Z,6.65
2023-04-26T07:12:27.854Z,5.78
2023-04-26T07:15:22.345Z,6.28
2023-04-26T07:18:15.825Z,6.60
2023-04-26T07:21:12.510Z,7.53
2023-04-26T07:24:07.624Z,6.88
2023-04-26T07:27:02.966Z,6.70
2023-04-26T07:29:54.965Z,6.32
2023-04-26T07:32:43.360Z,5.97
2023-04-26T07:35:31.203Z,6.45
2023-04-26T07:38:20.234Z,6.68
2023-04-26T07:41:08.098Z,7.38
2023-04-26T07:43:56.435Z,6.82
2023-04-26T07:46:44.038Z,6.45
2023-04-26T07:49:31.938Z,6.88
2023-04-26T07:52:19.385Z,6.50
2023-04-26T07:55:10.107Z,6.95
2023-04-26T07:57:58.268Z,6.80
2023-04-26T08:00:46.331Z,7.25
2023-04-26T08:03:34.416Z,7.05
2023-04-26T08:06:22.655Z,6.70
2023-04-26T08:09:11.408Z,7.57
2023-04-26T08:12:00.883Z,7.75
2023-04-26T08:14:48.459Z,7.60
2023-04-26T08:17:43.718Z,7.50
2023-04-26T08:20:39.480Z,6.72
2023-04-26T08:23:29.686Z,6.95
2023-04-26T08:26:22.856Z,6.00
2023-04-26T08:29:16.216Z,5.93
2023-04-26T08:32:12.521Z,7.32
2023-04-26T08:35:04.678Z,7.22
2023-04-26T08:38:09.729Z,7.28
2023-04-26T08:41:05.116Z,5.78
2023-04-26T08:43:59.031Z,6.75
2023-04-26T08:47:02.424Z,5.75
2023-04-26T08:49:54.280Z,6.00
2023-04-26T08:52:42.315Z,5.97
2023-04-26T08:55:30.748Z,6.45
2023-04-26T08:58:18.852Z,5.85
2023-04-26T09:01:07.745Z,5.25
2023-04-26T09:03:58.173Z,5.25
2023-04-26T09:06:45.913Z,4.63
2023-04-26T09:09:37.789Z,4.70
2023-04-26T09:12:25.789Z,4.93
2023-04-26T09:15:13.113Z,4.10
2023-04-26T09:18:25.190Z,4.40
2023-04-26T09:21:17.959Z,4.65
2023-04-26T09:24:06.944Z,4.28
2023-04-26T09:27:03.135Z,4.25
2023-04-26T09:30:05.990Z,3.67
2023-04-26T09:32:54.935Z,3.70
2023-04-26T09:35:44.175Z,4.50
2023-04-26T09:38:45.757Z,4.30
2023-04-26T09:41:46.022Z,4.75
2023-04-26T09:44:33.670Z,4.65
2023-04-26T09:47:24.072Z,4.93
2023-04-26T09:50:11.269Z,3.72
2023-04-26T09:52:59.003Z,4.32
2023-04-26T09:55:49.941Z,4.05
2023-04-26T09:58:38.442Z,4.22
2023-04-26T10:01:26.791Z,4.22
2023-04-26T10:04:14.550Z,3.10
2023-04-26T10:07:02.608Z,3.35
2023-04-26T10:09:51.045Z,3.50
2023-04-26T10:12:40.159Z,3.80
2023-04-26T10:15:28.618Z,3.70
2023-04-26T10:18:24.761Z,2.83
2023-04-26T10:21:18.128Z,3.00
2023-04-26T10:24:08.537Z,3.10
2023-04-26T10:26:58.323Z,3.00
2023-04-26T10:30:16.001Z,3.38
2023-04-26T10:33:03.376Z,2.65
2023-04-26T10:36:09.061Z,3.30
2023-04-26T10:39:28.561Z,2.90
2023-04-26T10:42:32.738Z,3.00
2023-04-26T10:45:35.969Z,3.35
2023-04-26T10:51:15.159Z,3.25
2023-04-26T10:54:04.304Z,3.63
2023-04-26T10:56:58.375Z,3.30
2023-04-26T11:00:21.419Z,3.17
2023-04-26T11:03:13.167Z,2.40
2023-04-26T11:06:02.064Z,2.60
2023-04-26T11:08:52.926Z,2.47
2023-04-26T11:11:54.378Z,2.70
2023-04-26T11:14:47.099Z,2.38
2023-04-26T11:17:39.396Z,2.65
2023-04-26T11:20:37.203Z,2.87
2023-04-26T11:23:26.256Z,2.20
2023-04-26T11:26:18.992Z,2.65
2023-04-26T11:29:11.052Z,2.63
2023-04-26T11:32:00.004Z,2.10
2023-04-26T11:34:51.024Z,2.55
2023-04-26T11:37:40.199Z,3.20
2023-04-26T11:40:32.030Z,2.97
2023-04-26T11:43:21.028Z,3.20
2023-04-26T11:46:11.225Z,3.30
2023-04-26T11:48:59.876Z,3.15
2023-04-26T11:51:51.269Z,2.80
2023-04-26T11:54:40.738Z,2.65
2023-04-26T11:57:33.590Z,2.58
2023-04-26T12:00:22.855Z,2.80
2023-04-26T12:03:11.722Z,2.63
2023-04-26T12:05:59.946Z,2.60
2023-04-26T12:08:53.268Z,2.35
2023-04-26T12:14:34.719Z,2.25
2023-04-26T12:17:22.914Z,2.13
2023-04-26T12:20:14.016Z,2.15
2023-04-26T12:23:05.545Z,3.42
2023-04-26T12:25:57.624Z,3.45
2023-04-26T12:28:47.088Z,3.40
2023-04-26T12:31:37.243Z,3.30
2023-04-26T12:34:26.692Z,2.88
2023-04-26T12:37:14.753Z,3.30
2023-04-26T12:40:02.898Z,3.10
2023-04-26T12:42:52.899Z,2.70
2023-04-26T12:45:42.144Z,2.90
2023-04-26T12:48:40.538Z,3.28
2023-04-26T12:51:36.895Z,3.67
2023-04-26T12:54:31.237Z,2.92
2023-04-26T12:57:46.087Z,3.03
2023-04-26T13:00:34.526Z,3.30
2023-04-26T13:03:22.834Z,3.20
2023-04-26T13:06:10.626Z,3.83
2023-04-26T13:08:57.980Z,3.63
2023-04-26T13:11:45.171Z,3.15
2023-04-26T13:14:32.350Z,3.63
2023-04-26T13:17:19.615Z,2.80
2023-04-26T13:20:09.549Z,3.40
2023-04-26T13:22:57.126Z,3.58
2023-04-26T13:25:44.352Z,2.97
2023-04-26T13:28:31.748Z,3.15
2023-04-26T13:31:19.458Z,3.38
2023-04-26T13:34:07.250Z,2.60
2023-04-26T13:36:57.929Z,2.67
2023-04-26T13:39:48.324Z,2.42
2023-04-26T13:42:39.649Z,2.63
2023-04-26T13:45:36.040Z,3.05
2023-04-26T13:48:24.314Z,3.05
2023-04-26T13:51:12.285Z,2.65
2023-04-26T13:54:01.835Z,2.25
2023-04-26T13:56:50.086Z,2.65
2023-04-26T13:59:38.321Z,2.83
2023-04-26T14:02:27.086Z,2.60
2023-04-26T14:05:15.506Z,2.83
2023-04-26T14:08:04.321Z,2.40
2023-04-26T14:10:53.981Z,2.35
2023-04-26T14:13:41.887Z,2.72
2023-04-26T14:16:29.683Z,2.28
2023-04-26T14:19:18.733Z,2.60
2023-04-26T14:22:07.776Z,2.20
2023-04-26T14:24:56.157Z,2.15
2023-04-26T14:27:45.587Z,2.20
2023-04-26T14:30:33.651Z,2.47
2023-04-26T14:33:23.772Z,2.40
2023-04-26T14:36:13.034Z,2.10
2023-04-26T14:39:01.432Z,2.38
2023-04-26T14:41:49.530Z,2.30
2023-04-26T14:44:39.305Z,2.40
2023-04-26T14:47:27.315Z,2.00
2023-04-26T14:50:15.458Z,2.55
2023-04-26T14:53:03.612Z,2.67
2023-04-26T14:55:56.897Z,3.35
2023-04-26T15:01:34.313Z,3.10
2023-04-26T15:04:23.650Z,2.70
2023-04-26T15:07:20.986Z,3.28
2023-04-26T15:10:19.472Z,3.15
2023-04-26T15:13:07.904Z,2.80
2023-04-26T15:15:56.091Z,3.10
2023-04-26T15:18:46.089Z,2.78
2023-04-26T15:21:34.791Z,2.80
2023-04-26T15:24:23.032Z,2.70
2023-04-26T15:27:11.305Z,2.67
2023-04-26T15:29:59.329Z,3.42
2023-04-26T15:32:51.025Z,3.63
2023-04-26T15:35:40.145Z,3.10
2023-04-26T15:38:28.142Z,3.20
2023-04-26T15:41:16.420Z,3.00
2023-04-26T15:44:04.438Z,3.13
2023-04-26T15:46:52.164Z,3.30
2023-04-26T15:49:39.231Z,3.08
2023-04-26T15:52:28.166Z,3.05
2023-04-26T15:55:15.562Z,2.95
2023-04-26T15:58:02.773Z,2.75
2023-04-26T16:00:50.117Z,2.90
2023-04-26T16:03:37.390Z,2.90
2023-04-26T16:06:24.840Z,2.67
2023-04-26T16:09:24.832Z,3.05
2023-04-26T16:12:13.687Z,3.00
2023-04-26T16:15:01.666Z,2.78
2023-04-26T16:17:48.808Z,2.97
2023-04-26T16:20:36.111Z,3.00
2023-04-26T16:23:23.795Z,3.08
2023-04-26T16:26:12.737Z,2.90
2023-04-26T16:28:59.507Z,2.60
2023-04-26T16:31:46.565Z,3.17
2023-04-26T16:34:34.032Z,3.08
2023-04-26T16:37:21.182Z,2.90
2023-04-26T16:40:09.693Z,3.42
2023-04-26T16:42:58.572Z,3.17
2023-04-26T16:45:46.542Z,3.13
2023-04-26T16:48:35.094Z,3.17
2023-04-26T16:51:22.455Z,2.83
2023-04-26T16:54:10.015Z,2.95
2023-04-26T16:56:57.630Z,3.13
2023-04-26T16:59:47.275Z,3.20
2023-04-26T17:02:34.769Z,2.90
2023-04-26T17:05:22.584Z,3.00
2023-04-26T17:08:10.416Z,3.05
2023-04-26T17:10:57.616Z,3.10
2023-04-26T17:13:45.845Z,3.30
2023-04-26T17:16:34.474Z,3.00
2023-04-26T17:19:21.886Z,2.80
2023-04-26T17:22:09.152Z,2.63
2023-04-26T17:24:56.253Z,3.05
2023-04-26T17:27:43.328Z,3.20
2023-04-26T17:30:30.539Z,3.05
2023-04-26T17:33:19.496Z,2.80
2023-04-26T17:36:07.732Z,2.72
2023-04-26T17:38:54.769Z,2.97
2023-04-26T17:41:42.072Z,3.10
2023-04-26T17:44:29.381Z,3.17
2023-04-26T17:47:16.733Z,3.05
2023-04-26T17:50:05.367Z,2.95
2023-04-26T17:52:52.272Z,3.17
2023-04-26T17:55:39.527Z,3.20
2023-04-26T17:58:27.330Z,3.78
2023-04-26T18:01:14.451Z,4.00
2023-04-26T18:04:01.840Z,3.17
2023-04-26T18:06:51.385Z,2.90
2023-04-26T18:09:38.717Z,3.33
2023-04-26T18:12:26.087Z,3.10
2023-04-26T18:15:13.854Z,3.40
2023-04-26T18:18:01.216Z,3.15
2023-04-26T18:20:48.458Z,3.50
2023-04-26T18:23:37.124Z,3.70
2023-04-26T18:26:24.137Z,2.97
2023-04-26T18:29:11.530Z,3.67
2023-04-26T18:31:58.991Z,3.63
2023-04-26T18:34:46.583Z,3.60
2023-04-26T18:37:33.977Z,3.65
2023-04-26T18:40:22.551Z,3.25
2023-04-26T18:43:09.927Z,3.67
2023-04-26T18:45:57.263Z,3.60
2023-04-26T18:48:45.204Z,3.83
2023-04-26T18:51:32.758Z,3.55
2023-04-26T18:54:19.761Z,3.45
2023-04-26T18:57:10.652Z,3.80
2023-04-26T18:59:59.184Z,3.80
2023-04-26T19:02:46.624Z,3.53
2023-04-26T19:05:34.183Z,3.45
2023-04-26T19:08:21.355Z,3.08
2023-04-26T19:11:09.215Z,3.30
2023-04-26T19:13:57.421Z,3.40
2023-04-26T19:16:44.497Z,3.13
2023-04-26T19:19:32.041Z,3.22
2023-04-26T19:22:19.212Z,3.45
2023-04-26T19:25:06.662Z,3.20
2023-04-26T19:27:53.967Z,3.13
2023-04-26T19:30:42.636Z,3.30
2023-04-26T19:33:29.994Z,3.33
2023-04-26T19:36:17.017Z,4.10
2023-04-26T19:39:04.898Z,3.85
2023-04-26T19:41:52.010Z,3.13
2023-04-26T19:44:41.378Z,3.53
2023-04-26T19:47:30.837Z,3.60
2023-04-26T19:50:18.928Z,3.85
2023-04-26T19:53:06.746Z,3.70
2023-04-26T19:55:55.248Z,3.83
2023-04-26T19:58:43.624Z,3.70
2023-04-26T20:01:31.497Z,4.03
2023-04-26T20:04:21.733Z,4.00
2023-04-26T20:07:10.395Z,3.47
2023-04-26T20:09:58.266Z,3.47
2023-04-26T20:12:46.146Z,3.85
2023-04-26T20:15:34.440Z,3.83
2023-04-26T20:18:22.898Z,3.72
2023-04-26T20:21:12.433Z,3.63
2023-04-26T20:23:59.948Z,4.13
2023-04-26T20:26:47.991Z,4.47
2023-04-26T20:29:36.253Z,4.32
2023-04-26T20:32:24.804Z,4.47
2023-04-26T20:35:14.035Z,4.10
2023-04-26T20:38:03.145Z,4.95
2023-04-26T20:40:50.973Z,4.10
2023-04-26T20:43:38.901Z,4.13
2023-04-26T20:46:26.419Z,4.82
2023-04-26T20:49:13.952Z,4.65
2023-04-26T20:52:01.703Z,5.00
2023-04-26T20:54:51.544Z,4.40
2023-04-26T20:57:40.045Z,5.30
2023-04-26T21:00:27.648Z,5.38
2023-04-26T21:03:15.911Z,5.28
2023-04-26T21:06:04.088Z,4.80
2023-04-26T21:08:52.342Z,4.78
2023-04-26T21:11:41.830Z,5.20
2023-04-26T21:14:29.937Z,4.90
2023-04-26T21:17:17.685Z,5.43
2023-04-26T21:20:05.604Z,4.93
2023-04-26T21:22:53.112Z,6.00
2023-04-26T21:25:45.895Z,5.32
2023-04-26T21:28:35.237Z,6.30
2023-04-26T21:31:24.048Z,6.25
2023-04-26T21:34:12.261Z,5.95
2023-04-26T21:37:00.309Z,6.10
2023-04-26T21:39:48.411Z,6.55
2023-04-26T21:42:35.929Z,6.28
2023-04-26T21:45:25.145Z,5.88
2023-04-26T21:48:12.961Z,5.85
2023-04-26T21:51:01.154Z,6.60
2023-04-26T21:53:48.824Z,6.03
2023-04-26T21:56:36.728Z,5.82
2023-04-26T21:59:24.634Z,5.32
2023-04-26T22:02:14.204Z,5.72
2023-04-26T22:05:02.253Z,6.20
2023-04-26T22:07:52.273Z,6.20
2023-04-26T22:10:39.984Z,6.53
2023-04-26T22:13:34.981Z,6.28
2023-04-26T22:16:23.397Z,6.90
2023-04-26T22:19:12.810Z,6.05
2023-04-26T22:22:03.774Z,5.60
2023-04-26T22:24:52.575Z,6.60
2023-04-26T22:27:42.337Z,6.30
2023-04-26T22:30:31.929Z,6.00
2023-04-26T22:33:19.725Z,6.30
2023-04-26T22:36:09.894Z,6.30
2023-04-26T22:38:59.141Z,6.45
2023-04-26T22:41:46.580Z,5.43
2023-04-26T22:44:33.978Z,6.35
2023-04-26T22:47:23.788Z,5.85
2023-04-26T22:50:11.709Z,5.55
2023-04-26T22:53:02.373Z,5.90
2023-04-26T22:55:52.010Z,5.22
2023-04-26T22:58:40.955Z,5.45
2023-04-26T23:01:28.543Z,6.38
2023-04-26T23:04:18.484Z,5.78
2023-04-26T23:07:11.847Z,6.07
2023-04-26T23:10:00.816Z,6.03
2023-04-26T23:12:51.390Z,5.15
2023-04-26T23:15:39.186Z,5.55
2023-04-26T23:18:27.463Z,6.43
2023-04-26T23:21:15.003Z,5.30
2023-04-26T23:24:02.492Z,5.75
2023-04-26T23:26:51.872Z,5.78
2023-04-26T23:29:39.449Z,6.50
2023-04-26T23:32:29.249Z,6.63
2023-04-26T23:35:16.610Z,5.50
2023-04-26T23:38:03.608Z,6.07
2023-04-26T23:40:50.765Z,5.53
2023-04-26T23:43:39.112Z,5.55
2023-04-26T23:46:26.212Z,5.93
2023-04-26T23:49:13.626Z,5.97
2023-04-26T23:52:00.991Z,5.80
2023-04-26T23:54:47.908Z,5.68
2023-04-26T23:57:35.167Z,6.63
